METAR Data

Data at: 0455 UTC 20 Oct 2018

METAR for:KPHX (Phoenix/Sky Harbor, AZ, US)
Text:KPHX 200451Z 08007KT 10SM CLR 25/11 A2995 RMK AO2 SLP127 T02500111
Temperature: 25.0°C ( 77°F)
Dewpoint: 11.1°C ( 52°F) [RH = 42%]
Pressure (altimeter):29.95 inches Hg (1014.3 mb) [Sea level pressure: 1012.7 mb]
Winds:from the E (80 degrees) at 8 MPH (7 knots; 3.6 m/s)
Visibility:10 or more sm (16+ km)
Ceiling:at least 12,000 feet AGL
Clouds:sky clear below 12,000 feet AGL